^^
Datos históricos de la estación: Murcia-Puente Tocinos
Diario Informe para Octubre 2, 2019 Unidades:  Métrico    Ingés   Ambas
Diario Semanal Mensual Anual
  Máxima: Mínima: Promedio:
Temperatura: 30.5 °C 21.9 °C 25.9 °C
Punto de rocio: 17.5 °C 5.5 °C 11 °C
Humedad: 76% 24% 41%
Velocidad viento: 19.8km/h 0km/h 9.8km/h
Racha viento: 37.8km/h - -
Viento- - OSO
Presión: 1015.3 hPa 1010.4 hPa -
Precipitación: 0.0 mm    
 
 
Tabla de datos para Octubre 2, 2019
Hora Temperatura Punto de rocio Presión Viento Velocidad viento Racha viento Humedad Intensidad lluvia(por hora) Nubes
00:04 25.9 °C 10.5 °C 1010.4 hPa Sur 6.9 km/h 10 km/h 38% 0.0 mm
00:09 25.9 °C 10.5 °C 1010.4 hPa Sur 6.8 km/h 11.1 km/h 38% 0.0 mm
00:14 25.8 °C 10.4 °C 1010.4 hPa Sur 6.5 km/h 11.3 km/h 38% 0.0 mm
00:19 25.8 °C 10.2 °C 1010.5 hPa SSO 6.6 km/h 11.1 km/h 37.6% 0.0 mm
00:24 25.7 °C 10.1 °C 1010.5 hPa SSO 6.9 km/h 11.9 km/h 37.5% 0.0 mm
00:29 25.7 °C 9.9 °C 1010.5 hPa SSO 7.3 km/h 13 km/h 37% 0.0 mm
00:34 25.8 °C 10 °C 1010.6 hPa SO 8.4 km/h 12.9 km/h 37% 0.0 mm
00:39 25.8 °C 9.6 °C 1010.6 hPa SO 8.4 km/h 13 km/h 36.1% 0.0 mm
00:44 25.8 °C 9.6 °C 1010.6 hPa OSO 8.4 km/h 14 km/h 36% 0.0 mm
00:49 25.8 °C 9.6 °C 1010.7 hPa OSO 8.2 km/h 14.8 km/h 36% 0.0 mm
00:54 25.7 °C 9.5 °C 1010.7 hPa OSO 7.6 km/h 14.5 km/h 36% 0.0 mm
00:59 25.7 °C 9.5 °C 1010.7 hPa OSO 7 km/h 9.7 km/h 36% 0.0 mm
01:04 25.7 °C 9.3 °C 1010.7 hPa OSO 5.8 km/h 10 km/h 35.4% 0.0 mm
01:09 25.7 °C 9.1 °C 1010.7 hPa OSO 5.9 km/h 11.1 km/h 35% 0.0 mm
01:14 25.7 °C 8.8 °C 1010.7 hPa SO 6.5 km/h 14.8 km/h 34.2% 0.0 mm
01:19 25.8 °C 8.7 °C 1010.7 hPa OSO 6.9 km/h 14.8 km/h 33.9% 0.0 mm
01:24 26 °C 8.5 °C 1010.6 hPa SO 8.4 km/h 15.6 km/h 33.1% 0.0 mm
01:29 26.1 °C 8.6 °C 1010.6 hPa SO 8.7 km/h 16.1 km/h 33% 0.0 mm
01:34 26.2 °C 8.6 °C 1010.7 hPa SO 9.5 km/h 15.6 km/h 33% 0.0 mm
01:39 26.2 °C 8.5 °C 1010.7 hPa SO 9.6 km/h 16.7 km/h 32.6% 0.0 mm
01:44 26.3 °C 8.5 °C 1010.7 hPa SO 10 km/h 16.1 km/h 32.5% 0.0 mm
01:49 26.2 °C 8.7 °C 1010.7 hPa OSO 9.6 km/h 14.5 km/h 33% 0.0 mm
01:54 26.1 °C 8.6 °C 1010.7 hPa SO 8.4 km/h 12.9 km/h 33% 0.0 mm
01:59 25.9 °C 8.9 °C 1010.7 hPa SO 8.1 km/h 11.3 km/h 34% 0.0 mm
02:04 25.8 °C 8.9 °C 1010.7 hPa SO 7.6 km/h 11.3 km/h 34.4% 0.0 mm
02:09 25.6 °C 9 °C 1010.7 hPa SO 7.6 km/h 11.9 km/h 35% 0.0 mm
02:14 25.3 °C 9 °C 1010.7 hPa SO 7.6 km/h 13 km/h 35.5% 0.0 mm
02:19 25.3 °C 9.2 °C 1010.9 hPa SO 7.8 km/h 15.6 km/h 36% 0.0 mm
02:24 25.3 °C 9.2 °C 1010.9 hPa SO 8.4 km/h 17.2 km/h 36% 0.0 mm
02:29 25.3 °C 9.2 °C 1010.9 hPa SO 8.8 km/h 17.7 km/h 36% 0.0 mm
02:34 25.3 °C 9.2 °C 1010.9 hPa SSO 10 km/h 17.7 km/h 36% 0.0 mm
02:39 25.3 °C 9.2 °C 1010.8 hPa SO 10 km/h 19 km/h 36% 0.0 mm
02:44 25.2 °C 9.2 °C 1010.8 hPa SSO 10 km/h 19.3 km/h 36.5% 0.0 mm
02:49 25.1 °C 9.4 °C 1011.0 hPa SO 10.1 km/h 19.3 km/h 37.1% 0.0 mm
02:54 25.1 °C 9.8 °C 1011.0 hPa OSO 10.3 km/h 14.8 km/h 38% 0.0 mm
02:59 25.1 °C 9.9 °C 1011.0 hPa OSO 9.5 km/h 14.5 km/h 38.3% 0.0 mm
03:04 24.9 °C 10 °C 1011.2 hPa OSO 7.6 km/h 13 km/h 39% 0.0 mm
03:09 24.9 °C 10.2 °C 1011.2 hPa OSO 6.9 km/h 12.9 km/h 39.4% 0.0 mm
03:14 24.8 °C 10.3 °C 1011.2 hPa SO 5 km/h 8 km/h 40% 0.0 mm
03:19 24.8 °C 10.1 °C 1011.2 hPa Sur 4.5 km/h 7.4 km/h 39.8% 0.0 mm
03:24 24.6 °C 10.1 °C 1011.2 hPa SSE 3.2 km/h 10 km/h 40% 0.0 mm
03:29 24.3 °C 10.2 °C 1011.2 hPa Sur 3.9 km/h 9.7 km/h 40.8% 0.0 mm
03:34 24.2 °C 10.1 °C 1011.2 hPa Sur 5.8 km/h 10 km/h 41% 0.0 mm
03:39 24.2 °C 10.2 °C 1011.2 hPa SSE 5.8 km/h 9.7 km/h 41.2% 0.0 mm
03:44 24.2 °C 10.4 °C 1011.2 hPa Sur 5.8 km/h 10.3 km/h 42% 0.0 mm
03:49 24.3 °C 10.5 °C 1011.3 hPa Sur 5.8 km/h 11.9 km/h 42% 0.0 mm
03:54 24.5 °C 10.6 °C 1011.3 hPa Sur 5.8 km/h 11.3 km/h 41.5% 0.0 mm
03:59 24.7 °C 10.6 °C 1011.3 hPa SSE 6.1 km/h 13.7 km/h 41% 0.0 mm
04:04 24.8 °C 10.7 °C 1011.3 hPa Sur 6.9 km/h 14.5 km/h 41% 0.0 mm
04:09 25 °C 10.8 °C 1011.3 hPa SSE 7.4 km/h 16.4 km/h 40.9% 0.0 mm
04:14 25.3 °C 10.7 °C 1011.3 hPa Sur 8.7 km/h 19 km/h 40% 0.0 mm
04:19 25.5 °C 10.8 °C 1011.3 hPa SO 9.3 km/h 19.3 km/h 39.7% 0.0 mm
04:24 25.5 °C 10.9 °C 1011.1 hPa SSO 11.1 km/h 17.7 km/h 40% 0.0 mm
04:29 25.4 °C 10.8 °C 1011.1 hPa Sur 9.9 km/h 11.3 km/h 40% 0.0 mm
04:34 25.3 °C 10.7 °C 1011.2 hPa Sur 6.5 km/h 11.3 km/h 40% 0.0 mm
04:39 25.2 °C 11 °C 1011.2 hPa SSE 6.1 km/h 10.3 km/h 40.9% 0.0 mm
04:44 25.2 °C 10.6 °C 1011.2 hPa SSO 5 km/h 14.8 km/h 40% 0.0 mm
04:49 25.2 °C 10.6 °C 1011.2 hPa Sur 5.6 km/h 14.5 km/h 40% 0.0 mm
04:54 25.2 °C 10.7 °C 1011.0 hPa SSO 7.6 km/h 11.3 km/h 40.1% 0.0 mm
04:59 25.2 °C 10.8 °C 1011.0 hPa Sur 7.6 km/h 11.3 km/h 40.7% 0.0 mm
05:04 24.9 °C 10.7 °C 1011.1 hPa SSO 7.6 km/h 11.9 km/h 41% 0.0 mm
05:09 24.8 °C 10.7 °C 1011.1 hPa SO 7.6 km/h 17.2 km/h 41% 0.0 mm
05:14 24.9 °C 10.6 °C 1011.1 hPa SO 7.6 km/h 17.7 km/h 40.5% 0.0 mm
05:19 25.1 °C 10.5 °C 1011.1 hPa SSO 8.1 km/h 16.1 km/h 40% 0.0 mm
05:24 25.1 °C 10.8 °C 1011.0 hPa SSO 9.5 km/h 12.9 km/h 40.6% 0.0 mm
05:29 25 °C 10.8 °C 1011.0 hPa SSO 8.6 km/h 11.1 km/h 41% 0.0 mm
05:34 24.9 °C 10.7 °C 1011.2 hPa SSO 5.8 km/h 17.2 km/h 41% 0.0 mm
05:39 24.9 °C 10.7 °C 1011.2 hPa SO 6.5 km/h 17.7 km/h 40.9% 0.0 mm
05:44 24.9 °C 10.8 °C 1011.2 hPa SSO 8.4 km/h 17.7 km/h 41.2% 0.0 mm
05:49 24.8 °C 11 °C 1011.2 hPa SSO 8.7 km/h 19.8 km/h 42% 0.0 mm
05:54 24.6 °C 11.2 °C 1011.2 hPa Sur 9.5 km/h 20.9 km/h 42.9% 0.0 mm
05:59 24.4 °C 11 °C 1011.2 hPa SO 8.9 km/h 12.9 km/h 43% 0.0 mm
06:04 24.4 °C 11 °C 1011.3 hPa Sur 7.6 km/h 11.3 km/h 43% 0.0 mm
06:09 24.3 °C 11.1 °C 1011.3 hPa Sur 7.1 km/h 14 km/h 43.4% 0.0 mm
06:14 24.3 °C 11 °C 1011.3 hPa Sur 5.8 km/h 14.8 km/h 43.2% 0.0 mm
06:19 24.3 °C 11 °C 1011.4 hPa SSO 6.2 km/h 13 km/h 43.2% 0.0 mm
06:24 24.3 °C 10.9 °C 1011.4 hPa Sur 7.6 km/h 18.3 km/h 42.9% 0.0 mm
06:29 24.4 °C 10.9 °C 1011.4 hPa SO 8.2 km/h 19.3 km/h 42.6% 0.0 mm
06:34 24.5 °C 10.7 °C 1011.4 hPa SO 10 km/h 19.3 km/h 42% 0.0 mm
06:39 24.7 °C 10.9 °C 1011.4 hPa SO 10.1 km/h 20.1 km/h 42% 0.0 mm
06:44 24.7 °C 10.9 °C 1011.4 hPa SO 10.3 km/h 20.9 km/h 42% 0.0 mm
06:49 24.7 °C 10.8 °C 1011.5 hPa SO 10.2 km/h 20.9 km/h 41.8% 0.0 mm
06:54 24.7 °C 10.6 °C 1011.5 hPa OSO 10 km/h 20.9 km/h 41.1% 0.0 mm
06:59 24.7 °C 10.8 °C 1011.5 hPa Oeste 10 km/h 19.3 km/h 41.6% 0.0 mm
07:04 24.6 °C 10.8 °C 1011.5 hPa OSO 10 km/h 16.7 km/h 42.1% 0.0 mm
07:09 24.3 °C 10.9 °C 1011.5 hPa Oeste 9.6 km/h 19 km/h 42.7% 0.0 mm
07:14 24.3 °C 10.8 °C 1011.5 hPa Oeste 8.7 km/h 19.3 km/h 42.7% 0.0 mm
07:19 24.2 °C 10.8 °C 1011.5 hPa ONO 9.1 km/h 19 km/h 43% 0.0 mm
07:24 24.1 °C 10.7 °C 1011.5 hPa Oeste 10.3 km/h 19.3 km/h 43% 0.0 mm
07:29 24.1 °C 10.6 °C 1011.5 hPa Oeste 11 km/h 25.9 km/h 42.7% 0.0 mm
07:34 24.2 °C 10.5 °C 1011.7 hPa ONO 13 km/h 25.7 km/h 42% 0.0 mm
07:39 24.2 °C 10.5 °C 1011.7 hPa Oeste 13 km/h 20.9 km/h 42% 0.0 mm
07:44 24.2 °C 10.5 °C 1011.7 hPa Oeste 13 km/h 20.9 km/h 42% 0.0 mm
07:49 24.2 °C 10.3 °C 1011.9 hPa ONO 13 km/h 20.4 km/h 41.5% 0.0 mm
07:54 24.3 °C 10.3 °C 1011.9 hPa ONO 13 km/h 20.9 km/h 41.2% 0.0 mm
07:59 24.4 °C 10.2 °C 1011.9 hPa ONO 13.3 km/h 24.1 km/h 40.8% 0.0 mm
08:04 24.6 °C 10.3 °C 1012.0 hPa ONO 14 km/h 29.8 km/h 40.5% 0.0 mm
08:09 24.6 °C 10.2 °C 1012.0 hPa ONO 14.9 km/h 30.6 km/h 40.3% 0.0 mm
08:14 24.6 °C 10.2 °C 1012.0 hPa ONO 17.2 km/h 27.8 km/h 40.3% 0.0 mm
08:19 24.5 °C 10.4 °C 1012.0 hPa ONO 17.2 km/h 27.4 km/h 40.9% 0.0 mm
08:24 24.4 °C 10.3 °C 1012.0 hPa ONO 17.2 km/h 24.1 km/h 41% 0.0 mm
08:29 24.3 °C 10.5 °C 1012.0 hPa NO 16.3 km/h 22.5 km/h 42% 0.0 mm
08:34 24.1 °C 10.6 °C 1012.2 hPa NO 13.7 km/h 22.5 km/h 42.8% 0.0 mm
08:39 23.7 °C 10.7 °C 1012.2 hPa NO 13.5 km/h 22.5 km/h 43.9% 0.0 mm
08:44 23.6 °C 10.8 °C 1012.2 hPa NO 13 km/h 22.5 km/h 44.8% 0.0 mm
08:49 23.6 °C 10.7 °C 1012.3 hPa NO 13.2 km/h 25.9 km/h 44.3% 0.0 mm
08:54 23.7 °C 10.7 °C 1012.3 hPa ONO 13.7 km/h 25.9 km/h 44% 0.0 mm
08:59 23.7 °C 10.7 °C 1012.3 hPa ONO 13.5 km/h 22.5 km/h 44% 0.0 mm
09:04 23.7 °C 10.7 °C 1012.3 hPa ONO 13 km/h 16.1 km/h 44% 0.0 mm
09:09 23.8 °C 10.9 °C 1012.3 hPa Oeste 11.4 km/h 16.1 km/h 44.2% 0.0 mm
09:14 23.9 °C 10.9 °C 1012.3 hPa SE 6.9 km/h 11.3 km/h 44% 0.0 mm
09:19 24.1 °C 11.3 °C 1012.7 hPa ESE 6.4 km/h 9.3 km/h 44.7% 0.0 mm
09:24 24.1 °C 11.3 °C 1012.7 hPa Este 4.7 km/h 11.1 km/h 44.5% 0.0 mm
09:29 24.1 °C 11.3 °C 1012.7 hPa Este 4.7 km/h 11.3 km/h 44.7% 0.0 mm
09:34 24.2 °C 11.2 °C 1012.7 hPa ENE 5 km/h 9.7 km/h 44.2% 0.0 mm
09:39 24.3 °C 11.3 °C 1012.7 hPa NO 4.9 km/h 11.9 km/h 44% 0.0 mm
09:44 24.3 °C 11.2 °C 1012.7 hPa NO 4.7 km/h 18.5 km/h 44% 0.0 mm
09:49 24.3 °C 11.4 °C 1012.9 hPa NO 5.2 km/h 19.3 km/h 44.3% 0.0 mm
09:54 24.2 °C 11.2 °C 1012.9 hPa NO 6.9 km/h 16.4 km/h 44% 0.0 mm
09:59 24.2 °C 11.2 °C 1012.9 hPa NO 7.9 km/h 18 km/h 44.2% 0.0 mm
10:04 24.2 °C 11.4 °C 1013.3 hPa NO 10.3 km/h 17.7 km/h 44.8% 0.0 mm
10:09 24.2 °C 11.4 °C 1013.3 hPa ONO 10.2 km/h 16.7 km/h 44.6% 0.0 mm
10:14 24.3 °C 11.5 °C 1013.3 hPa NO 10 km/h 18.5 km/h 44.6% 0.0 mm
10:19 24.3 °C 11.3 °C 1013.5 hPa ONO 10 km/h 20.4 km/h 44.2% 0.0 mm
10:24 24.3 °C 11.3 °C 1013.5 hPa NO 10 km/h 24.5 km/h 44% 0.0 mm
10:29 24.3 °C 11.2 °C 1013.5 hPa ONO 11.2 km/h 27.8 km/h 43.8% 0.0 mm
10:34 24.4 °C 11.2 °C 1013.8 hPa ONO 14.8 km/h 27.4 km/h 43.6% 0.0 mm
10:39 24.4 °C 11.2 °C 1013.8 hPa ONO 15.1 km/h 27.4 km/h 43.4% 0.0 mm
10:44 24.6 °C 11.1 °C 1013.8 hPa ONO 16.1 km/h 27.8 km/h 43% 0.0 mm
10:49 24.7 °C 11.2 °C 1013.8 hPa ONO 16.2 km/h 29.8 km/h 42.7% 0.0 mm
10:54 24.9 °C 11.3 °C 1013.8 hPa ONO 16.4 km/h 30.6 km/h 42.6% 0.0 mm
10:59 25 °C 11.2 °C 1013.8 hPa ONO 16.2 km/h 30.6 km/h 41.9% 0.0 mm
11:04 25.1 °C 11.2 °C 1013.9 hPa ONO 15.6 km/h 29.6 km/h 41.8% 0.0 mm
11:09 25.1 °C 11.2 °C 1013.9 hPa ONO 16 km/h 29.6 km/h 41.7% 0.0 mm
11:14 25.2 °C 11.1 °C 1013.9 hPa NO 17.2 km/h 29 km/h 41.4% 0.0 mm
11:19 25.3 °C 10.9 °C 1013.9 hPa ONO 16.6 km/h 33.5 km/h 40.4% 0.0 mm
11:24 25.3 °C 10.7 °C 1013.7 hPa ONO 14.8 km/h 33.8 km/h 39.9% 0.0 mm
11:29 25.4 °C 10.4 °C 1013.7 hPa ONO 15.7 km/h 37.8 km/h 39% 0.0 mm
11:34 25.6 °C 10.2 °C 1013.7 hPa ONO 18 km/h 37 km/h 38% 0.0 mm
11:39 25.7 °C 10.2 °C 1013.6 hPa ONO 18 km/h 37 km/h 37.7% 0.0 mm
11:44 25.7 °C 9.9 °C 1013.6 hPa ONO 18 km/h 37 km/h 37% 0.0 mm
11:49 25.7 °C 9.9 °C 1013.6 hPa ONO 18.5 km/h 37 km/h 37% 0.0 mm
11:54 25.8 °C 9.8 °C 1013.6 hPa ONO 19.8 km/h 30.6 km/h 36.6% 0.0 mm
11:59 26 °C 10.1 °C 1013.6 hPa NO 19.4 km/h 30.6 km/h 36.8% 0.0 mm
12:04 26.1 °C 10 °C 1013.6 hPa NO 18.4 km/h 27.8 km/h 36.4% 0.0 mm
12:09 26.2 °C 10 °C 1013.6 hPa ONO 18.1 km/h 31.7 km/h 36.1% 0.0 mm
12:14 26.2 °C 9.9 °C 1013.6 hPa NO 17.2 km/h 32.2 km/h 36% 0.0 mm
12:19 26.3 °C 10.2 °C 1013.6 hPa NO 17.5 km/h 32.3 km/h 36.4% 0.0 mm
12:24 26.4 °C 10.1 °C 1013.6 hPa NO 18.4 km/h 33.8 km/h 36% 0.0 mm
12:29 26.5 °C 10.2 °C 1013.6 hPa ONO 17.8 km/h 29.6 km/h 36% 0.0 mm
12:34 26.6 °C 10.3 °C 1013.6 hPa NO 16.4 km/h 33.5 km/h 36% 0.0 mm
12:39 26.8 °C 10.5 °C 1013.6 hPa NO 16 km/h 33.8 km/h 36% 0.0 mm
12:44 26.8 °C 10.4 °C 1013.6 hPa NO 14.8 km/h 28.2 km/h 35.8% 0.0 mm
12:49 26.9 °C 10.5 °C 1013.6 hPa NO 15 km/h 29.6 km/h 36% 0.0 mm
12:54 26.9 °C 10.4 °C 1013.5 hPa ONO 15.6 km/h 29 km/h 35.5% 0.0 mm
12:59 27 °C 10.3 °C 1013.5 hPa NO 15.4 km/h 27.8 km/h 35.2% 0.0 mm
13:04 27 °C 10.3 °C 1013.5 hPa NO 14.8 km/h 29.6 km/h 35% 0.0 mm
13:09 27.1 °C 10.3 °C 1013.4 hPa ONO 15 km/h 29 km/h 35% 0.0 mm
13:14 27.2 °C 10.5 °C 1013.4 hPa NO 15.6 km/h 24.5 km/h 35.2% 0.0 mm
13:19 27.2 °C 10.4 °C 1013.4 hPa NO 15.2 km/h 25.9 km/h 35% 0.0 mm
13:24 27.3 °C 10.2 °C 1013.2 hPa ONO 14 km/h 29.6 km/h 34.5% 0.0 mm
13:29 27.2 °C 10.2 °C 1013.2 hPa ONO 14.5 km/h 29 km/h 34.4% 0.0 mm
13:34 27.3 °C 10.3 °C 1013.2 hPa Oeste 16.1 km/h 25.9 km/h 34.4% 0.0 mm
13:39 27.6 °C 10.3 °C 1012.9 hPa ONO 15.5 km/h 25.7 km/h 34% 0.0 mm
13:44 27.7 °C 10.3 °C 1012.9 hPa ONO 14 km/h 33.3 km/h 33.9% 0.0 mm
13:49 27.7 °C 10.4 °C 1012.9 hPa NO 14.2 km/h 33.8 km/h 34% 0.0 mm
13:54 27.8 °C 10.2 °C 1012.8 hPa ONO 14.8 km/h 26.2 km/h 33.5% 0.0 mm
13:59 27.7 °C 10.4 °C 1012.8 hPa NO 14.8 km/h 26.2 km/h 33.9% 0.0 mm
14:04 27.9 °C 10.3 °C 1012.8 hPa NO 14.8 km/h 25.7 km/h 33.3% 0.0 mm
14:09 28.1 °C 10.1 °C 1012.7 hPa NO 14.1 km/h 25.9 km/h 32.7% 0.0 mm
14:14 28.1 °C 10.2 °C 1012.7 hPa ONO 12.2 km/h 25.7 km/h 32.9% 0.0 mm
14:19 28.2 °C 10.4 °C 1012.7 hPa ONO 12 km/h 20.9 km/h 33% 0.0 mm
14:24 28.2 °C 10.3 °C 1012.5 hPa NNO 11.1 km/h 25.9 km/h 32.8% 0.0 mm
14:29 28.2 °C 10.4 °C 1012.5 hPa NNO 11.7 km/h 27.8 km/h 32.9% 0.0 mm
14:34 28.2 °C 10.3 °C 1012.5 hPa ONO 13.7 km/h 27.4 km/h 32.9% 0.0 mm
14:39 28.1 °C 10.3 °C 1012.3 hPa Oeste 13.8 km/h 27.8 km/h 32.8% 0.0 mm
14:44 28.2 °C 10.4 °C 1012.3 hPa NO 14 km/h 27.4 km/h 32.9% 0.0 mm
14:49 28.4 °C 10.3 °C 1012.3 hPa NO 13.3 km/h 19.3 km/h 32.3% 0.0 mm
14:54 28.6 °C 10.3 °C 1012.2 hPa ONO 11.1 km/h 25.6 km/h 32.1% 0.0 mm
14:59 28.5 °C 10 °C 1012.2 hPa Oeste 12.2 km/h 25.9 km/h 31.6% 0.0 mm
15:04 28.4 °C 10.1 °C 1012.2 hPa Oeste 14.8 km/h 25.7 km/h 32% 0.0 mm
15:09 28.7 °C 10.3 °C 1012.0 hPa NO 13.6 km/h 20.1 km/h 31.8% 0.0 mm
15:14 28.8 °C 10 °C 1012.0 hPa NO 10.3 km/h 22.5 km/h 31% 0.0 mm
15:19 28.8 °C 10 °C 1012.0 hPa NO 11 km/h 22.5 km/h 31.1% 0.0 mm
15:24 28.9 °C 10.3 °C 1012.0 hPa NO 13 km/h 26.2 km/h 31.5% 0.0 mm
15:29 29 °C 10.6 °C 1012.0 hPa NNO 12.7 km/h 25.7 km/h 32% 0.0 mm
15:34 29.2 °C 10.3 °C 1012.0 hPa ONO 11.9 km/h 27.8 km/h 31% 0.0 mm
15:39 29.2 °C 10.3 °C 1011.9 hPa NO 12.2 km/h 27.4 km/h 30.9% 0.0 mm
15:44 29.3 °C 10.4 °C 1011.9 hPa ONO 13 km/h 26.2 km/h 30.9% 0.0 mm
15:49 29.3 °C 10.4 °C 1011.9 hPa ONO 13.7 km/h 25.7 km/h 31% 0.0 mm
15:54 29.2 °C 10.4 °C 1011.9 hPa ONO 15.6 km/h 24.1 km/h 31% 0.0 mm
15:59 29.2 °C 10.3 °C 1011.9 hPa NO 15.1 km/h 24.1 km/h 31% 0.0 mm
16:04 29.3 °C 10.3 °C 1011.9 hPa ONO 14 km/h 24.1 km/h 30.8% 0.0 mm
16:09 29.4 °C 10.3 °C 1011.8 hPa NO 13 km/h 19.8 km/h 30.4% 0.0 mm
16:14 29.5 °C 10.1 °C 1011.8 hPa NO 10 km/h 26.2 km/h 30% 0.0 mm
16:19 29.5 °C 9.7 °C 1011.8 hPa NO 10.9 km/h 25.7 km/h 29.2% 0.0 mm
16:24 29.5 °C 9.9 °C 1011.7 hPa ONO 13.7 km/h 29.6 km/h 29.7% 0.0 mm
16:29 29.5 °C 9.6 °C 1011.7 hPa ONO 13.3 km/h 29.6 km/h 29% 0.0 mm
16:34 29.7 °C 9.9 °C 1011.7 hPa ONO 12.2 km/h 20.9 km/h 29.3% 0.0 mm
16:39 29.9 °C 9.9 °C 1011.5 hPa ONO 11.3 km/h 16.7 km/h 29% 0.0 mm
16:44 30 °C 9.7 °C 1011.5 hPa NO 8.4 km/h 20.4 km/h 28.4% 0.0 mm
16:49 30 °C 9.6 °C 1011.5 hPa NO 9.1 km/h 20.9 km/h 28.1% 0.0 mm
16:54 29.9 °C 9.4 °C 1011.4 hPa NNO 11.1 km/h 20.9 km/h 28% 0.0 mm
16:59 30 °C 9.3 °C 1011.4 hPa ONO 11.3 km/h 19.3 km/h 27.6% 0.0 mm
17:04 30.2 °C 9.1 °C 1011.4 hPa ONO 11.9 km/h 22.2 km/h 27% 0.0 mm
17:09 30.2 °C 9.1 °C 1011.2 hPa ONO 12 km/h 22.5 km/h 27% 0.0 mm
17:14 30.2 °C 9.1 °C 1011.2 hPa NO 12.2 km/h 27.4 km/h 26.9% 0.0 mm
17:19 30.2 °C 9.1 °C 1011.3 hPa NO 12.4 km/h 27.8 km/h 26.9% 0.0 mm
17:24 30.3 °C 8.8 °C 1011.3 hPa NNO 13 km/h 20.9 km/h 26.2% 0.0 mm
17:29 30.3 °C 8.7 °C 1011.3 hPa North 11.9 km/h 19 km/h 26% 0.0 mm
17:34 30.3 °C 8.9 °C 1011.3 hPa NNO 8.7 km/h 19.3 km/h 26.4% 0.0 mm
17:39 30.5 °C 8.6 °C 1011.3 hPa NNE 8.4 km/h 19.3 km/h 25.7% 0.0 mm
17:44 30.4 °C 7.9 °C 1011.3 hPa North 7.6 km/h 24.1 km/h 24.5% 0.0 mm
17:49 30.1 °C 7.3 °C 1011.3 hPa NNE 8.7 km/h 24.1 km/h 24% 0.0 mm
17:54 29.9 °C 7.1 °C 1011.3 hPa NNE 11.9 km/h 23.7 km/h 24% 0.0 mm
17:59 29.8 °C 7.1 °C 1011.3 hPa NNE 12 km/h 24.1 km/h 24% 0.0 mm
18:04 29.8 °C 7.1 °C 1011.6 hPa NNE 12.2 km/h 24.1 km/h 24.1% 0.0 mm
18:09 29.8 °C 7 °C 1011.6 hPa NNE 11.8 km/h 25.9 km/h 24% 0.0 mm
18:14 29.7 °C 7 °C 1011.6 hPa NNE 10.3 km/h 25.7 km/h 24% 0.0 mm
18:19 29.7 °C 7.3 °C 1011.6 hPa NNE 10.2 km/h 20.9 km/h 24.6% 0.0 mm
18:24 29.7 °C 7.4 °C 1011.6 hPa NNE 10 km/h 22.2 km/h 24.7% 0.0 mm
18:29 29.6 °C 6.9 °C 1011.6 hPa NNO 9.6 km/h 22.5 km/h 24% 0.0 mm
18:34 29.5 °C 7.1 °C 1011.8 hPa North 8.7 km/h 22.5 km/h 24.4% 0.0 mm
18:39 29.5 °C 6.8 °C 1011.8 hPa North 9 km/h 22.5 km/h 24% 0.0 mm
18:44 29.4 °C 6.7 °C 1011.8 hPa NNO 10 km/h 20.9 km/h 24% 0.0 mm
18:49 29.3 °C 6.6 °C 1011.8 hPa NNO 10.1 km/h 19.3 km/h 24% 0.0 mm
18:54 29.2 °C 7.1 °C 1011.8 hPa NNO 10.3 km/h 16.1 km/h 24.9% 0.0 mm
18:59 29.2 °C 7.1 °C 1011.8 hPa NNO 10.1 km/h 16.7 km/h 25% 0.0 mm
19:04 29 °C 7.1 °C 1012.0 hPa NO 9.5 km/h 16.1 km/h 25.1% 0.0 mm
19:09 28.9 °C 7.4 °C 1012.0 hPa NNO 9 km/h 13 km/h 25.9% 0.0 mm
19:14 28.9 °C 7.4 °C 1012.0 hPa NO 7.6 km/h 12.9 km/h 26% 0.0 mm
19:19 28.8 °C 7.4 °C 1012.2 hPa NNO 7.1 km/h 9.7 km/h 26.1% 0.0 mm
19:24 28.7 °C 7.3 °C 1012.2 hPa NNO 5.8 km/h 13.7 km/h 26.1% 0.0 mm
19:29 28.5 °C 7.1 °C 1012.2 hPa NNO 5.9 km/h 14.5 km/h 26% 0.0 mm
19:34 28.3 °C 6.9 °C 1012.4 hPa NNO 6.5 km/h 11.9 km/h 25.9% 0.0 mm
19:39 28.2 °C 6.7 °C 1012.4 hPa NNO 6.1 km/h 11.3 km/h 25.7% 0.0 mm
19:44 28.1 °C 6.2 °C 1012.4 hPa North 5 km/h 11.3 km/h 25% 0.0 mm
19:49 28.1 °C 6.2 °C 1012.6 hPa NNO 5 km/h 11.3 km/h 25% 0.0 mm
19:54 27.9 °C 5.9 °C 1012.6 hPa NNO 5 km/h 18.5 km/h 24.8% 0.0 mm
19:59 27.8 °C 5.9 °C 1012.6 hPa NO 5.6 km/h 19.3 km/h 25% 0.0 mm
20:04 27.7 °C 5.5 °C 1012.9 hPa NNO 6.9 km/h 22.2 km/h 24.5% 0.0 mm
20:09 27.5 °C 8.1 °C 1012.9 hPa North 7.8 km/h 24.1 km/h 29.6% 0.0 mm
20:14 27.2 °C 10.9 °C 1012.9 hPa NNE 10.3 km/h 24.1 km/h 36.4% 0.0 mm
20:19 26.5 °C 13.7 °C 1013.2 hPa NNE 9.8 km/h 17.2 km/h 45.2% 0.0 mm
20:24 25.8 °C 15 °C 1013.2 hPa NNE 8.4 km/h 18 km/h 51.2% 0.0 mm
20:29 25.3 °C 15.5 °C 1013.2 hPa NNE 8.4 km/h 19.3 km/h 54.6% 0.0 mm
20:34 25.1 °C 15.9 °C 1013.3 hPa NNE 8.7 km/h 14.5 km/h 56.8% 0.0 mm
20:39 24.8 °C 16.2 °C 1013.3 hPa NNE 8.6 km/h 14.8 km/h 59% 0.0 mm
20:44 24.5 °C 16.4 °C 1013.3 hPa NNE 8.4 km/h 16.7 km/h 60.8% 0.0 mm
20:49 24.3 °C 16.6 °C 1013.4 hPa NNE 8.4 km/h 16.1 km/h 62.1% 0.0 mm
20:54 24.2 °C 16.9 °C 1013.4 hPa NNE 8.7 km/h 16.1 km/h 63.6% 0.0 mm
20:59 24.1 °C 17 °C 1013.4 hPa NNE 8.4 km/h 15.6 km/h 64.4% 0.0 mm
21:04 24 °C 17 °C 1013.7 hPa NNE 7.6 km/h 16.1 km/h 65.1% 0.0 mm
21:09 23.9 °C 17.1 °C 1013.7 hPa NNE 7.3 km/h 11.9 km/h 66% 0.0 mm
21:14 23.8 °C 17.3 °C 1013.7 hPa North 6.5 km/h 11.3 km/h 67% 0.0 mm
21:19 23.7 °C 17.3 °C 1013.9 hPa NNE 6.1 km/h 9.7 km/h 67.1% 0.0 mm
21:24 23.6 °C 17.3 °C 1013.9 hPa NE 5 km/h 9.7 km/h 68% 0.0 mm
21:29 23.5 °C 17.2 °C 1013.9 hPa NE 5 km/h 9.7 km/h 68% 0.0 mm
21:34 23.3 °C 17.3 °C 1014.1 hPa NNE 5 km/h 10 km/h 68.9% 0.0 mm
21:39 23.2 °C 17.2 °C 1014.1 hPa NNO 5 km/h 9.7 km/h 69% 0.0 mm
21:44 23.2 °C 17.2 °C 1014.1 hPa NO 5 km/h 11.1 km/h 69% 0.0 mm
21:49 23.2 °C 17.4 °C 1014.3 hPa NO 4.9 km/h 11.3 km/h 69.8% 0.0 mm
21:54 23.2 °C 17.4 °C 1014.3 hPa NO 4.6 km/h 7.4 km/h 70% 0.0 mm
21:58 23.1 °C 17.3 °C 1014.3 hPa NO 4.6 km/h 10 km/h 70% 0.0 mm
22:04 23 °C 17.2 °C 1014.5 hPa NNE 4.7 km/h 8.4 km/h 70% 0.0 mm
22:09 22.9 °C 17.1 °C 1014.5 hPa NO 4.7 km/h 8 km/h 70% 0.0 mm
22:14 22.9 °C 17.1 °C 1014.5 hPa NNE 4.7 km/h 8.4 km/h 70% 0.0 mm
22:19 22.8 °C 17.1 °C 1014.6 hPa NNE 4.6 km/h 8 km/h 70% 0.0 mm
22:24 22.8 °C 17 °C 1014.6 hPa NO 3.9 km/h 9.3 km/h 70% 0.0 mm
22:29 22.7 °C 17.1 °C 1014.6 hPa North 4 km/h 9.7 km/h 70.9% 0.0 mm
22:34 22.6 °C 17.1 °C 1014.8 hPa North 5 km/h 11.1 km/h 71% 0.0 mm
22:39 22.6 °C 17.1 °C 1014.8 hPa NNE 4.9 km/h 11.3 km/h 71% 0.0 mm
22:44 22.6 °C 17.1 °C 1014.8 hPa ESE 4.7 km/h 8 km/h 71% 0.0 mm
22:49 22.5 °C 17.1 °C 1014.9 hPa ESE 4.6 km/h 8 km/h 71.6% 0.0 mm
22:54 22.4 °C 17.1 °C 1014.9 hPa ESE 3.9 km/h 6.4 km/h 72% 0.0 mm
22:59 22.4 °C 17.1 °C 1014.9 hPa ESE 3.2 km/h 3.7 km/h 72% 0.0 mm
23:04 22.3 °C 17 °C 1015.1 hPa Calm   3.9 km/h 72% 0.0 mm
23:09 22.3 °C 17 °C 1015.1 hPa ESE 0.2 km/h 5.6 km/h 72% 0.0 mm
23:14 22.3 °C 17.2 °C 1015.1 hPa Oeste 2.2 km/h 5.6 km/h 72.9% 0.0 mm
23:19 22.3 °C 17.2 °C 1015.1 hPa Oeste 2.3 km/h 5.8 km/h 73% 0.0 mm
23:24 22.2 °C 17.2 °C 1015.1 hPa Oeste 3.2 km/h 7.4 km/h 73.5% 0.0 mm
23:29 22.2 °C 17.3 °C 1015.1 hPa Oeste 3.2 km/h 8 km/h 74% 0.0 mm
23:34 22.2 °C 17.3 °C 1015.2 hPa Oeste 2.9 km/h 6.4 km/h 74% 0.0 mm
23:39 22.1 °C 17.4 °C 1015.2 hPa Oeste 3 km/h 7.4 km/h 74.8% 0.0 mm
23:44 22 °C 17.4 °C 1015.2 hPa Oeste 3.9 km/h 8 km/h 75% 0.0 mm
23:49 21.9 °C 17.5 °C 1015.3 hPa OSO 3.8 km/h 5.6 km/h 75.9% 0.0 mm
23:54 21.9 °C 17.5 °C 1015.3 hPa OSO 3.2 km/h 4.8 km/h 76% 0.0 mm
23:59 21.9 °C 17.5 °C 1015.3 hPa OSO 3.1 km/h 4.8 km/h 76% 0.0 mm
Murcia-Puente Tocinos, España
Compliments of Weather Underground - 3 mb

La estación de MeteoMurcia.com, publica sus datos en los siguientes proyectos:

Weather Underground PWS IMURCIAP2 Meteoclimatic www.awekas.at

W3Counter
Web Analytics